Ocean Majesty — CQSC — position and weather

sailwx.info

Track history (hours):
 
Tides and Currents Weather Stations Pressure Air Temp Water Temp Dewpoint Dewpoint Depression Visibility Wind Speed Wind Dir Waves Ship Positions

Ocean Majesty

Last reported at 2016-May-29 14:34 UTC. Time now 2016-May-29 15:22 UTC.
Position N 50°43' W 000°58'.

Length 136 m; draft 6.3 m.

Type: Passenger vessel. MMSI: 255717000.

Date/timePositionNaut miles runAvg speedWind from/ knotsBaromVisibWave heightAir tempDewpointWater temp
2016-May-29 14:34N 50°43' W 000°58'1312.7
2016-May-29 13:33N 50°47' W 001°17'0 0.2
2016-May-29 12:33N 50°46' W 001°17'0 0.0
2016-May-29 11:33N 50°46' W 001°17'0 0.0
2016-May-29 10:33N 50°46' W 001°17'0 0.1
2016-May-29 09:33N 50°46' W 001°17'0 0.0
2016-May-29 08:30N 50°46' W 001°17'0 0.0
2016-May-29 07:33N 50°46' W 001°18'0 0.0
2016-May-29 06:33N 50°46' W 001°18'9 8.9
2016-May-29 05:33N 50°44' W 001°04'9 9.2
2016-May-29 04:33N 50°35' W 000°59'1211.5
2016-May-29 03:30N 50°26' W 001°11'1312.7
2016-May-29 02:28N 50°16' W 001°24'1213.6
2016-May-29 01:33N 50°06' W 001°36'1614.9
2016-May-29 00:30N 49°53' W 001°50'72 4.5
2016-May-28 08:32N 48°42' W 002°06'1010.0
2016-May-28 07:33N 48°46' W 002°19'2913.7
2016-May-28 05:27N 48°59' W 002°59'1213.2
2016-May-28 04:31N 48°58' W 003°18'1212.2
2016-May-28 03:33N 48°57' W 003°35'1212.2
2016-May-28 02:33N 48°54' W 003°54'1512.6
2016-May-28 01:22N 48°50' W 004°15'911.7
2016-May-28 00:33N 48°47' W 004°29'1111.5
2016-May-27 23:33N 48°44' W 004°46'1212.1
2016-May-27 22:33N 48°40' W 005°03'1212.3
2016-May-27 21:33N 48°34' W 005°19'1211.8
2016-May-27 20:34N 48°22' W 005°22'1413.6
2016-May-27 19:34N 48°10' W 005°15'1313.2
2016-May-27 18:33N 47°59' W 005°03'1413.6
2016-May-27 17:33N 47°52' W 004°46'2813.4
2016-May-27 15:27N 47°38' W 004°10'1213.4
2016-May-27 14:33N 47°34' W 003°53'1313.1
2016-May-27 13:33N 47°29' W 003°34'1312.7
2016-May-27 12:34N 47°25' W 003°17'7 6.8
2016-May-27 11:31N 47°22' W 003°08'0 0.0
2016-May-27 10:31N 47°22' W 003°08'0 0.0
2016-May-27 09:31N 47°21' W 003°08'0 0.0
2016-May-27 08:31N 47°21' W 003°08'0 0.0
2016-May-27 07:31N 47°21' W 003°08'0 0.0
2016-May-27 06:31N 47°21' W 003°08'0 0.0
2016-May-27 05:19N 47°21' W 003°08'0 0.0
2016-May-27 04:28N 47°21' W 003°08'0 0.0
2016-May-27 03:31N 47°21' W 003°08'0 0.0
2016-May-27 02:31N 47°21' W 003°08'5 4.7
2016-May-27 01:33N 47°20' W 003°02'1010.5
2016-May-27 00:33N 47°11' W 003°08'1211.7
2016-May-26 23:34N 47°03' W 003°21'1211.7
2016-May-26 22:33N 46°54' W 003°33'1211.9
2016-May-26 21:33N 46°46' W 003°45'1211.8
2016-May-26 20:33N 46°38' W 003°58'1211.8
2016-May-26 19:33N 46°30' W 004°10'  
2016-May-24 15:31N 39°10' W 009°48'1616.4
2016-May-24 14:31N 38°54' W 009°51'1616.4
2016-May-24 13:33N 38°38' W 009°51'1615.5
2016-May-24 12:32N 38°23' W 009°44'1615.6
2016-May-24 11:30N 38°07' W 009°40'1516.1
2016-May-24 10:33N 37°52' W 009°36'7414.8
2016-May-24 05:33N 36°43' W 009°02'1515.4
2016-May-24 04:33N 36°42' W 008°43'1515.5
2016-May-24 03:33N 36°41' W 008°24'1615.3
2016-May-24 02:32N 36°40' W 008°04'1515.5
2016-May-24 01:33N 36°39' W 007°45'1615.8
2016-May-24 00:34N 36°37' W 007°26'97 5.3
2016-May-23 06:13N 35°58' W 005°35'914.1
2016-May-23 05:33N 36°02' W 005°25'5 0.6
2016-May-22 22:24N 36°05' W 005°21'22315.0
2016-May-22 07:30N 37°11' W 000°55'1716.5
2016-May-22 06:29N 37°21' W 000°38'1516.5
2016-May-22 05:33N 37°30' W 000°22'1616.4
2016-May-22 04:33N 37°40' W 000°06'1716.3
2016-May-22 03:33N 37°50' E 000°11'1615.6
2016-May-22 02:32N 37°58' E 000°28'1615.7
2016-May-22 01:30N 38°08' E 000°44'1615.9
2016-May-22 00:31N 38°17' E 001°00'2016.0
2016-May-21 23:17N 38°29' E 001°20'1115.7
2016-May-21 22:33N 38°36' E 001°32'1512.9
2016-May-21 21:22N 38°51' E 001°30'3 0.4
2016-May-21 14:18N 38°49' E 001°31'20 1.8
2016-May-21 03:33N 38°56' E 001°08'2612.8
2016-May-21 01:31N 39°22' E 001°15'2613.5
2016-May-20 23:33N 39°46' E 001°29'1413.7
2016-May-20 22:33N 39°59' E 001°35'1413.9
2016-May-20 21:33N 40°12' E 001°41'1413.7
2016-May-20 20:33N 40°25' E 001°48'1413.6
2016-May-20 19:33N 40°37' E 001°54'1413.8
2016-May-20 18:33N 40°50' E 001°60'1413.9
2016-May-20 17:33N 41°03' E 002°07'  
Track history (hours):
 
Tides and Currents Weather Stations Pressure Air Temp Water Temp Dewpoint Dewpoint Depression Visibility Wind Speed Wind Dir Waves Ship Positions

Ocean Majesty

Last reported at 2016-May-29 14:34 UTC. Time now 2016-May-29 15:22 UTC.
Position N 50°43' W 000°58'.

Length 136 m; draft 6.3 m.

Type: Passenger vessel. MMSI: 255717000.

Date/timePositionNaut miles runAvg speedWind from/ knotsBaromVisibWave heightAir tempDewpointWater temp
2016-May-29 14:34N 50°43' W 000°58'1312.7
2016-May-29 13:33N 50°47' W 001°17'0 0.2
2016-May-29 12:33N 50°46' W 001°17'0 0.0
2016-May-29 11:33N 50°46' W 001°17'0 0.0
2016-May-29 10:33N 50°46' W 001°17'0 0.1
2016-May-29 09:33N 50°46' W 001°17'0 0.0
2016-May-29 08:30N 50°46' W 001°17'0 0.0
2016-May-29 07:33N 50°46' W 001°18'0 0.0
2016-May-29 06:33N 50°46' W 001°18'9 8.9
2016-May-29 05:33N 50°44' W 001°04'9 9.2
2016-May-29 04:33N 50°35' W 000°59'1211.5
2016-May-29 03:30N 50°26' W 001°11'1312.7
2016-May-29 02:28N 50°16' W 001°24'1213.6
2016-May-29 01:33N 50°06' W 001°36'1614.9
2016-May-29 00:30N 49°53' W 001°50'72 4.5
2016-May-28 08:32N 48°42' W 002°06'1010.0
2016-May-28 07:33N 48°46' W 002°19'2913.7
2016-May-28 05:27N 48°59' W 002°59'1213.2
2016-May-28 04:31N 48°58' W 003°18'1212.2
2016-May-28 03:33N 48°57' W 003°35'1212.2
2016-May-28 02:33N 48°54' W 003°54'1512.6
2016-May-28 01:22N 48°50' W 004°15'911.7
2016-May-28 00:33N 48°47' W 004°29'1111.5
2016-May-27 23:33N 48°44' W 004°46'1212.1
2016-May-27 22:33N 48°40' W 005°03'1212.3
2016-May-27 21:33N 48°34' W 005°19'1211.8
2016-May-27 20:34N 48°22' W 005°22'1413.6
2016-May-27 19:34N 48°10' W 005°15'1313.2
2016-May-27 18:33N 47°59' W 005°03'1413.6
2016-May-27 17:33N 47°52' W 004°46'2813.4
2016-May-27 15:27N 47°38' W 004°10'1213.4
2016-May-27 14:33N 47°34' W 003°53'1313.1
2016-May-27 13:33N 47°29' W 003°34'1312.7
2016-May-27 12:34N 47°25' W 003°17'7 6.8
2016-May-27 11:31N 47°22' W 003°08'0 0.0
2016-May-27 10:31N 47°22' W 003°08'0 0.0
2016-May-27 09:31N 47°21' W 003°08'0 0.0
2016-May-27 08:31N 47°21' W 003°08'0 0.0
2016-May-27 07:31N 47°21' W 003°08'0 0.0
2016-May-27 06:31N 47°21' W 003°08'0 0.0
2016-May-27 05:19N 47°21' W 003°08'0 0.0
2016-May-27 04:28N 47°21' W 003°08'0 0.0
2016-May-27 03:31N 47°21' W 003°08'0 0.0
2016-May-27 02:31N 47°21' W 003°08'5 4.7
2016-May-27 01:33N 47°20' W 003°02'1010.5
2016-May-27 00:33N 47°11' W 003°08'1211.7
2016-May-26 23:34N 47°03' W 003°21'1211.7
2016-May-26 22:33N 46°54' W 003°33'1211.9
2016-May-26 21:33N 46°46' W 003°45'1211.8
2016-May-26 20:33N 46°38' W 003°58'1211.8
2016-May-26 19:33N 46°30' W 004°10'  
2016-May-24 15:31N 39°10' W 009°48'1616.4
2016-May-24 14:31N 38°54' W 009°51'1616.4
2016-May-24 13:33N 38°38' W 009°51'1615.5
2016-May-24 12:32N 38°23' W 009°44'1615.6
2016-May-24 11:30N 38°07' W 009°40'1516.1
2016-May-24 10:33N 37°52' W 009°36'7414.8
2016-May-24 05:33N 36°43' W 009°02'1515.4
2016-May-24 04:33N 36°42' W 008°43'1515.5
2016-May-24 03:33N 36°41' W 008°24'1615.3
2016-May-24 02:32N 36°40' W 008°04'1515.5
2016-May-24 01:33N 36°39' W 007°45'1615.8
2016-May-24 00:34N 36°37' W 007°26'97 5.3
2016-May-23 06:13N 35°58' W 005°35'914.1
2016-May-23 05:33N 36°02' W 005°25'5 0.6
2016-May-22 22:24N 36°05' W 005°21'22315.0
2016-May-22 07:30N 37°11' W 000°55'1716.5
2016-May-22 06:29N 37°21' W 000°38'1516.5
2016-May-22 05:33N 37°30' W 000°22'1616.4
2016-May-22 04:33N 37°40' W 000°06'1716.3
2016-May-22 03:33N 37°50' E 000°11'1615.6
2016-May-22 02:32N 37°58' E 000°28'1615.7
2016-May-22 01:30N 38°08' E 000°44'1615.9
2016-May-22 00:31N 38°17' E 001°00'2016.0
2016-May-21 23:17N 38°29' E 001°20'1115.7
2016-May-21 22:33N 38°36' E 001°32'1512.9
2016-May-21 21:22N 38°51' E 001°30'3 0.4
2016-May-21 14:18N 38°49' E 001°31'20 1.8
2016-May-21 03:33N 38°56' E 001°08'2612.8
2016-May-21 01:31N 39°22' E 001°15'2613.5
2016-May-20 23:33N 39°46' E 001°29'1413.7
2016-May-20 22:33N 39°59' E 001°35'1413.9
2016-May-20 21:33N 40°12' E 001°41'1413.7
2016-May-20 20:33N 40°25' E 001°48'1413.6
2016-May-20 19:33N 40°37' E 001°54'1413.8
2016-May-20 18:33N 40°50' E 001°60'1413.9
2016-May-20 17:33N 41°03' E 002°07'  

Dump ship's entire track history